Главная страница
METAR-TAF:

METAR-TAF

Аэропорты :

Актобе, Казахстан

широта: 50-17N, долгота: 057-09E, высота над уровнем моря: 227 м

Текущие метеонаблюдения

Эта сводка был подготовлена 27 минут назад, в 06:30 UTC
Ветер 8 Узел от западный-юго-западный, изменяющийся между южный-юго-западный и западно-северо-западный
Температура 27°C
Влажность 28%
Давление 1017 hPa
Видимость 10 км и более
Нет облачности ниже 1500 м, и нет кучево-дождевой облачности

METAR: UATT 270630Z 25004MPS 200V290 CAVOK 27/07 Q1017 R31/70D NOSIG RMK QFE743/0990

Время: 11:57 (06:57 UTC)

Прогноз

Эта сводка был подготовлена 1 час и 57 минут назад, в 05:00 UTC
Прогноз действительный с 27-го 06 UTC до 28-го 06 UTC
Ветер 10 Узел от юго-западный
Видимость 10 км и более
Отдельные облака на высоте 4000 фута, Кучево-дождевые.
временами
С 27-го 06 UTC до 27-го 14 UTC
Ветер 19 Узел от западный-юго-западный

TAF: UATT 270500Z 2706/2806 22005MPS 9999 SCT040CB TX29/2712Z TN12/2723Z TEMPO 2706/2714 24010MPS

Метеонаблюдения и прогнозы для более 4000 аэропортов (сводки METAR и TAF).

Имеющиеся станции представлены на карте желтыми и красными точками.

Чтобы увидеть название станции, наведите на нее мышь.

Затем щелкните, чтобы увидеть метеонаблюдения и метеопрогнозы.

Управление картой: чтобы увеличить масштаб, щелкните зеленые кнопки с черным крестиком; чтобы уменьшить масштаб, щелкните зеленую кнопку с тире; для просмотра соседних карт щелкайте зеленые стрелки.


METAR-TAF: